sensor_id;sensor_type;location;lat;lon;timestamp;P1;durP1;ratioP1;P2;durP2;ratioP2
70426;SDS011;57872;55.432;37.248;2023-08-01T00:03:31;15.48;;;8.52;;
70426;SDS011;57872;55.432;37.248;2023-08-01T00:08:32;15.90;;;9.52;;
70426;SDS011;57872;55.432;37.248;2023-08-01T00:13:32;14.40;;;8.38;;
70426;SDS011;57872;55.432;37.248;2023-08-01T00:18:33;24.38;;;7.50;;
70426;SDS011;57872;55.432;37.248;2023-08-01T00:23:33;13.25;;;7.30;;
70426;SDS011;57872;55.432;37.248;2023-08-01T00:28:34;12.77;;;7.30;;
70426;SDS011;57872;55.432;37.248;2023-08-01T00:33:35;8.65;;;5.53;;
70426;SDS011;57872;55.432;37.248;2023-08-01T00:38:36;10.60;;;6.35;;
70426;SDS011;57872;55.432;37.248;2023-08-01T00:43:37;12.40;;;7.05;;
70426;SDS011;57872;55.432;37.248;2023-08-01T00:48:38;11.52;;;7.10;;
70426;SDS011;57872;55.432;37.248;2023-08-01T00:53:39;10.70;;;7.35;;
70426;SDS011;57872;55.432;37.248;2023-08-01T00:58:52;21.30;;;8.50;;
70426;SDS011;57872;55.432;37.248;2023-08-01T01:04:26;16.63;;;7.57;;
70426;SDS011;57872;55.432;37.248;2023-08-01T01:09:58;13.20;;;6.90;;
70426;SDS011;57872;55.432;37.248;2023-08-01T01:15:23;11.65;;;6.63;;
70426;SDS011;57872;55.432;37.248;2023-08-01T01:21:01;18.85;;;8.05;;
70426;SDS011;57872;55.432;37.248;2023-08-01T01:32:07;14.32;;;7.53;;
70426;SDS011;57872;55.432;37.248;2023-08-01T01:37:46;16.52;;;8.15;;
70426;SDS011;57872;55.432;37.248;2023-08-01T01:42:48;16.87;;;7.37;;
70426;SDS011;57872;55.432;37.248;2023-08-01T01:47:50;14.73;;;8.00;;
70426;SDS011;57872;55.432;37.248;2023-08-01T01:52:54;15.15;;;7.50;;
70426;SDS011;57872;55.432;37.248;2023-08-01T01:57:55;14.07;;;7.40;;
70426;SDS011;57872;55.432;37.248;2023-08-01T02:02:55;12.10;;;7.45;;
70426;SDS011;57872;55.432;37.248;2023-08-01T02:08:14;9.68;;;6.15;;
70426;SDS011;57872;55.432;37.248;2023-08-01T02:13:15;12.55;;;6.95;;
70426;SDS011;57872;55.432;37.248;2023-08-01T02:18:18;14.38;;;9.15;;
70426;SDS011;57872;55.432;37.248;2023-08-01T02:23:30;11.40;;;5.93;;
70426;SDS011;57872;55.432;37.248;2023-08-01T02:29:00;10.38;;;6.45;;
70426;SDS011;57872;55.432;37.248;2023-08-01T02:34:01;9.02;;;6.25;;
70426;SDS011;57872;55.432;37.248;2023-08-01T02:39:04;13.27;;;6.68;;
70426;SDS011;57872;55.432;37.248;2023-08-01T02:44:10;12.75;;;6.72;;
70426;SDS011;57872;55.432;37.248;2023-08-01T02:49:14;13.85;;;6.95;;
70426;SDS011;57872;55.432;37.248;2023-08-01T02:54:15;15.05;;;7.35;;
70426;SDS011;57872;55.432;37.248;2023-08-01T02:59:21;11.98;;;6.95;;
70426;SDS011;57872;55.432;37.248;2023-08-01T03:05:16;12.03;;;7.33;;
70426;SDS011;57872;55.432;37.248;2023-08-01T03:10:20;12.30;;;8.00;;
70426;SDS011;57872;55.432;37.248;2023-08-01T03:15:21;11.82;;;7.10;;
70426;SDS011;57872;55.432;37.248;2023-08-01T03:20:22;11.35;;;7.13;;
70426;SDS011;57872;55.432;37.248;2023-08-01T03:25:23;11.48;;;7.63;;
70426;SDS011;57872;55.432;37.248;2023-08-01T03:30:24;14.45;;;7.50;;
70426;SDS011;57872;55.432;37.248;2023-08-01T03:35:28;14.30;;;7.63;;
70426;SDS011;57872;55.432;37.248;2023-08-01T03:40:30;12.82;;;6.90;;
70426;SDS011;57872;55.432;37.248;2023-08-01T03:45:33;13.80;;;7.10;;
70426;SDS011;57872;55.432;37.248;2023-08-01T03:50:37;14.32;;;7.38;;
70426;SDS011;57872;55.432;37.248;2023-08-01T04:01:09;15.55;;;7.95;;
70426;SDS011;57872;55.432;37.248;2023-08-01T04:06:15;20.23;;;8.10;;
70426;SDS011;57872;55.432;37.248;2023-08-01T04:11:38;15.43;;;7.88;;
70426;SDS011;57872;55.432;37.248;2023-08-01T04:16:58;17.17;;;7.57;;
70426;SDS011;57872;55.432;37.248;2023-08-01T04:22:02;13.55;;;7.00;;
70426;SDS011;57872;55.432;37.248;2023-08-01T04:27:03;14.57;;;7.75;;
70426;SDS011;57872;55.432;37.248;2023-08-01T04:32:04;13.57;;;7.82;;
70426;SDS011;57872;55.432;37.248;2023-08-01T04:37:08;12.65;;;7.45;;
70426;SDS011;57872;55.432;37.248;2023-08-01T04:42:13;18.60;;;8.53;;
70426;SDS011;57872;55.432;37.248;2023-08-01T04:47:16;16.10;;;8.55;;
70426;SDS011;57872;55.432;37.248;2023-08-01T04:52:45;14.77;;;8.02;;
70426;SDS011;57872;55.432;37.248;2023-08-01T04:57:59;14.07;;;7.50;;
70426;SDS011;57872;55.432;37.248;2023-08-01T05:03:32;16.65;;;8.38;;
70426;SDS011;57872;55.432;37.248;2023-08-01T05:08:33;12.43;;;6.95;;
70426;SDS011;57872;55.432;37.248;2023-08-01T05:13:39;14.68;;;8.05;;
70426;SDS011;57872;55.432;37.248;2023-08-01T05:31:14;9.88;;;5.85;;
70426;SDS011;57872;55.432;37.248;2023-08-01T05:37:08;11.75;;;6.68;;
70426;SDS011;57872;55.432;37.248;2023-08-01T05:42:44;13.48;;;5.68;;
70426;SDS011;57872;55.432;37.248;2023-08-01T05:48:17;10.55;;;5.68;;
70426;SDS011;57872;55.432;37.248;2023-08-01T05:53:34;11.55;;;5.80;;
70426;SDS011;57872;55.432;37.248;2023-08-01T05:59:07;12.82;;;5.60;;
70426;SDS011;57872;55.432;37.248;2023-08-01T06:04:37;10.65;;;5.82;;
70426;SDS011;57872;55.432;37.248;2023-08-01T06:09:58;10.85;;;4.78;;
70426;SDS011;57872;55.432;37.248;2023-08-01T06:15:40;8.27;;;5.07;;
70426;SDS011;57872;55.432;37.248;2023-08-01T06:20:41;7.88;;;4.72;;
70426;SDS011;57872;55.432;37.248;2023-08-01T06:25:42;10.25;;;4.70;;
70426;SDS011;57872;55.432;37.248;2023-08-01T06:30:42;11.15;;;4.13;;
70426;SDS011;57872;55.432;37.248;2023-08-01T06:35:43;8.13;;;4.45;;
70426;SDS011;57872;55.432;37.248;2023-08-01T06:40:44;7.68;;;4.85;;
70426;SDS011;57872;55.432;37.248;2023-08-01T06:45:44;8.43;;;4.38;;
70426;SDS011;57872;55.432;37.248;2023-08-01T06:50:45;10.02;;;3.95;;
70426;SDS011;57872;55.432;37.248;2023-08-01T06:55:46;6.20;;;3.80;;
70426;SDS011;57872;55.432;37.248;2023-08-01T07:00:47;8.35;;;3.75;;
70426;SDS011;57872;55.432;37.248;2023-08-01T07:05:47;8.52;;;3.58;;
70426;SDS011;57872;55.432;37.248;2023-08-01T07:10:51;6.78;;;3.90;;
70426;SDS011;57872;55.432;37.248;2023-08-01T07:15:57;9.25;;;4.28;;
70426;SDS011;57872;55.432;37.248;2023-08-01T07:21:08;9.05;;;4.07;;
70426;SDS011;57872;55.432;37.248;2023-08-01T07:26:12;9.23;;;4.32;;
70426;SDS011;57872;55.432;37.248;2023-08-01T07:31:16;7.07;;;4.30;;
70426;SDS011;57872;55.432;37.248;2023-08-01T07:36:17;8.70;;;4.28;;
70426;SDS011;57872;55.432;37.248;2023-08-01T07:41:25;7.18;;;4.15;;
70426;SDS011;57872;55.432;37.248;2023-08-01T07:46:29;7.20;;;4.05;;
70426;SDS011;57872;55.432;37.248;2023-08-01T07:51:30;8.02;;;4.38;;
70426;SDS011;57872;55.432;37.248;2023-08-01T07:56:31;8.48;;;4.65;;
70426;SDS011;57872;55.432;37.248;2023-08-01T08:02:35;7.33;;;4.00;;
70426;SDS011;57872;55.432;37.248;2023-08-01T08:07:02;12.70;;;4.82;;
70426;SDS011;57872;55.432;37.248;2023-08-01T08:12:04;10.48;;;4.80;;
70426;SDS011;57872;55.432;37.248;2023-08-01T08:17:06;7.70;;;3.97;;
70426;SDS011;57872;55.432;37.248;2023-08-01T08:22:07;7.25;;;3.67;;
70426;SDS011;57872;55.432;37.248;2023-08-01T08:27:13;6.78;;;3.45;;
70426;SDS011;57872;55.432;37.248;2023-08-01T08:33:02;6.90;;;3.65;;
70426;SDS011;57872;55.432;37.248;2023-08-01T08:38:41;6.80;;;3.47;;
70426;SDS011;57872;55.432;37.248;2023-08-01T08:43:45;8.15;;;3.60;;
70426;SDS011;57872;55.432;37.248;2023-08-01T08:48:54;9.27;;;4.03;;
70426;SDS011;57872;55.432;37.248;2023-08-01T08:54:01;10.43;;;4.35;;
70426;SDS011;57872;55.432;37.248;2023-08-01T08:59:04;6.75;;;3.75;;
70426;SDS011;57872;55.432;37.248;2023-08-01T09:04:28;8.38;;;4.20;;
70426;SDS011;57872;55.432;37.248;2023-08-01T09:16:01;6.53;;;3.47;;
70426;SDS011;57872;55.432;37.248;2023-08-01T09:21:02;7.70;;;3.40;;
70426;SDS011;57872;55.432;37.248;2023-08-01T09:26:14;7.70;;;3.80;;
70426;SDS011;57872;55.432;37.248;2023-08-01T09:31:34;7.43;;;3.90;;
70426;SDS011;57872;55.432;37.248;2023-08-01T09:36:59;7.75;;;3.42;;
70426;SDS011;57872;55.432;37.248;2023-08-01T09:42:10;6.67;;;3.43;;
70426;SDS011;57872;55.432;37.248;2023-08-01T09:47:14;6.32;;;3.70;;
70426;SDS011;57872;55.432;37.248;2023-08-01T09:52:26;7.97;;;3.95;;
70426;SDS011;57872;55.432;37.248;2023-08-01T09:57:31;8.05;;;4.18;;
70426;SDS011;57872;55.432;37.248;2023-08-01T10:02:32;6.30;;;3.45;;
70426;SDS011;57872;55.432;37.248;2023-08-01T10:07:36;7.55;;;3.33;;
70426;SDS011;57872;55.432;37.248;2023-08-01T10:12:57;11.93;;;7.82;;
70426;SDS011;57872;55.432;37.248;2023-08-01T10:18:07;11.65;;;5.03;;
70426;SDS011;57872;55.432;37.248;2023-08-01T10:23:09;7.30;;;4.25;;
70426;SDS011;57872;55.432;37.248;2023-08-01T10:28:55;7.85;;;3.85;;
70426;SDS011;57872;55.432;37.248;2023-08-01T10:34:06;6.32;;;3.50;;
70426;SDS011;57872;55.432;37.248;2023-08-01T10:39:22;6.40;;;3.58;;
70426;SDS011;57872;55.432;37.248;2023-08-01T10:44:33;8.68;;;4.53;;
70426;SDS011;57872;55.432;37.248;2023-08-01T10:50:30;8.10;;;4.47;;
70426;SDS011;57872;55.432;37.248;2023-08-01T10:56:03;6.55;;;3.88;;
70426;SDS011;57872;55.432;37.248;2023-08-01T11:01:04;8.00;;;4.43;;
70426;SDS011;57872;55.432;37.248;2023-08-01T11:06:11;9.20;;;4.00;;
70426;SDS011;57872;55.432;37.248;2023-08-01T11:11:24;6.57;;;3.17;;
70426;SDS011;57872;55.432;37.248;2023-08-01T11:16:25;7.93;;;3.80;;
70426;SDS011;57872;55.432;37.248;2023-08-01T11:21:26;9.07;;;4.40;;
70426;SDS011;57872;55.432;37.248;2023-08-01T11:26:30;9.90;;;3.85;;
70426;SDS011;57872;55.432;37.248;2023-08-01T11:31:31;6.63;;;3.40;;
70426;SDS011;57872;55.432;37.248;2023-08-01T11:36:31;9.60;;;3.63;;
70426;SDS011;57872;55.432;37.248;2023-08-01T11:41:32;5.93;;;3.33;;
70426;SDS011;57872;55.432;37.248;2023-08-01T11:46:33;7.73;;;3.47;;
70426;SDS011;57872;55.432;37.248;2023-08-01T11:51:39;8.18;;;4.00;;
70426;SDS011;57872;55.432;37.248;2023-08-01T11:56:41;11.25;;;4.15;;
70426;SDS011;57872;55.432;37.248;2023-08-01T12:01:46;6.70;;;3.83;;
70426;SDS011;57872;55.432;37.248;2023-08-01T12:06:47;6.53;;;3.58;;
70426;SDS011;57872;55.432;37.248;2023-08-01T12:11:57;7.13;;;3.93;;
70426;SDS011;57872;55.432;37.248;2023-08-01T12:16:58;8.40;;;3.93;;
70426;SDS011;57872;55.432;37.248;2023-08-01T12:21:59;8.00;;;4.30;;
70426;SDS011;57872;55.432;37.248;2023-08-01T12:27:00;10.70;;;4.43;;
70426;SDS011;57872;55.432;37.248;2023-08-01T12:32:01;10.50;;;4.57;;
70426;SDS011;57872;55.432;37.248;2023-08-01T12:37:02;10.20;;;5.05;;
70426;SDS011;57872;55.432;37.248;2023-08-01T12:42:05;8.23;;;4.22;;
70426;SDS011;57872;55.432;37.248;2023-08-01T12:47:06;12.50;;;4.60;;
70426;SDS011;57872;55.432;37.248;2023-08-01T12:52:08;12.95;;;6.40;;
70426;SDS011;57872;55.432;37.248;2023-08-01T12:57:09;9.13;;;4.50;;
70426;SDS011;57872;55.432;37.248;2023-08-01T13:02:09;7.47;;;4.07;;
70426;SDS011;57872;55.432;37.248;2023-08-01T13:07:10;11.70;;;4.20;;
70426;SDS011;57872;55.432;37.248;2023-08-01T13:12:10;10.10;;;4.20;;
70426;SDS011;57872;55.432;37.248;2023-08-01T13:17:11;9.13;;;4.43;;
70426;SDS011;57872;55.432;37.248;2023-08-01T13:22:11;9.27;;;4.07;;
70426;SDS011;57872;55.432;37.248;2023-08-01T13:27:12;9.00;;;4.97;;
70426;SDS011;57872;55.432;37.248;2023-08-01T13:32:13;13.93;;;7.70;;
70426;SDS011;57872;55.432;37.248;2023-08-01T13:37:13;13.20;;;6.07;;
70426;SDS011;57872;55.432;37.248;2023-08-01T13:42:14;9.87;;;5.40;;
70426;SDS011;57872;55.432;37.248;2023-08-01T13:47:15;16.30;;;8.53;;
70426;SDS011;57872;55.432;37.248;2023-08-01T13:52:16;11.27;;;4.77;;
70426;SDS011;57872;55.432;37.248;2023-08-01T13:57:16;12.73;;;5.13;;
70426;SDS011;57872;55.432;37.248;2023-08-01T14:02:17;14.23;;;7.78;;
70426;SDS011;57872;55.432;37.248;2023-08-01T14:07:21;11.52;;;5.60;;
70426;SDS011;57872;55.432;37.248;2023-08-01T14:12:22;7.63;;;4.93;;
70426;SDS011;57872;55.432;37.248;2023-08-01T14:17:38;11.43;;;5.45;;
70426;SDS011;57872;55.432;37.248;2023-08-01T14:22:41;9.23;;;4.28;;
70426;SDS011;57872;55.432;37.248;2023-08-01T14:27:59;8.73;;;4.90;;
70426;SDS011;57872;55.432;37.248;2023-08-01T14:33:12;14.75;;;6.53;;
70426;SDS011;57872;55.432;37.248;2023-08-01T14:38:18;10.27;;;6.63;;
70426;SDS011;57872;55.432;37.248;2023-08-01T14:43:19;8.82;;;4.90;;
70426;SDS011;57872;55.432;37.248;2023-08-01T14:49:10;8.85;;;5.03;;
70426;SDS011;57872;55.432;37.248;2023-08-01T14:54:16;10.27;;;4.53;;
70426;SDS011;57872;55.432;37.248;2023-08-01T15:01:04;8.70;;;4.40;;
70426;SDS011;57872;55.432;37.248;2023-08-01T15:06:33;20.13;;;15.85;;
70426;SDS011;57872;55.432;37.248;2023-08-01T15:11:38;17.95;;;12.35;;
70426;SDS011;57872;55.432;37.248;2023-08-01T15:16:39;10.20;;;5.40;;
70426;SDS011;57872;55.432;37.248;2023-08-01T15:21:44;8.95;;;4.63;;
70426;SDS011;57872;55.432;37.248;2023-08-01T15:26:51;9.25;;;4.82;;
70426;SDS011;57872;55.432;37.248;2023-08-01T15:32:01;8.38;;;5.00;;
70426;SDS011;57872;55.432;37.248;2023-08-01T15:37:23;9.07;;;4.25;;
70426;SDS011;57872;55.432;37.248;2023-08-01T15:43:23;7.90;;;4.50;;
70426;SDS011;57872;55.432;37.248;2023-08-01T15:54:53;10.32;;;5.50;;
70426;SDS011;57872;55.432;37.248;2023-08-01T15:59:57;9.07;;;5.03;;
70426;SDS011;57872;55.432;37.248;2023-08-01T16:05:01;10.32;;;5.75;;
70426;SDS011;57872;55.432;37.248;2023-08-01T16:16:20;11.20;;;5.45;;
70426;SDS011;57872;55.432;37.248;2023-08-01T16:21:24;9.40;;;5.20;;
70426;SDS011;57872;55.432;37.248;2023-08-01T16:27:31;12.00;;;5.10;;
70426;SDS011;57872;55.432;37.248;2023-08-01T16:33:55;7.53;;;4.03;;
70426;SDS011;57872;55.432;37.248;2023-08-01T16:39:00;7.28;;;4.60;;
70426;SDS011;57872;55.432;37.248;2023-08-01T16:44:04;7.97;;;4.90;;
70426;SDS011;57872;55.432;37.248;2023-08-01T16:49:34;10.27;;;5.53;;
70426;SDS011;57872;55.432;37.248;2023-08-01T16:54:35;6.95;;;4.43;;
70426;SDS011;57872;55.432;37.248;2023-08-01T16:59:37;7.70;;;4.37;;
70426;SDS011;57872;55.432;37.248;2023-08-01T17:04:42;17.00;;;12.32;;
70426;SDS011;57872;55.432;37.248;2023-08-01T17:16:55;9.43;;;5.25;;
70426;SDS011;57872;55.432;37.248;2023-08-01T17:21:56;9.85;;;5.45;;
70426;SDS011;57872;55.432;37.248;2023-08-01T17:26:57;8.93;;;5.20;;
70426;SDS011;57872;55.432;37.248;2023-08-01T17:31:58;13.30;;;5.63;;
70426;SDS011;57872;55.432;37.248;2023-08-01T17:36:59;12.00;;;5.47;;
70426;SDS011;57872;55.432;37.248;2023-08-01T17:42:00;9.43;;;5.57;;
70426;SDS011;57872;55.432;37.248;2023-08-01T17:47:00;11.33;;;5.80;;
70426;SDS011;57872;55.432;37.248;2023-08-01T17:52:02;12.23;;;5.33;;
70426;SDS011;57872;55.432;37.248;2023-08-01T17:57:04;13.50;;;6.45;;
70426;SDS011;57872;55.432;37.248;2023-08-01T18:02:51;14.18;;;6.60;;
70426;SDS011;57872;55.432;37.248;2023-08-01T18:07:52;15.90;;;6.78;;
70426;SDS011;57872;55.432;37.248;2023-08-01T18:12:59;15.77;;;6.80;;
70426;SDS011;57872;55.432;37.248;2023-08-01T18:18:05;13.98;;;7.03;;
70426;SDS011;57872;55.432;37.248;2023-08-01T18:23:08;10.85;;;6.15;;
70426;SDS011;57872;55.432;37.248;2023-08-01T18:28:09;13.63;;;7.30;;
70426;SDS011;57872;55.432;37.248;2023-08-01T18:33:10;14.47;;;7.60;;
70426;SDS011;57872;55.432;37.248;2023-08-01T18:38:14;15.90;;;7.15;;
70426;SDS011;57872;55.432;37.248;2023-08-01T18:43:20;11.98;;;7.60;;
70426;SDS011;57872;55.432;37.248;2023-08-01T18:48:21;15.55;;;7.82;;
70426;SDS011;57872;55.432;37.248;2023-08-01T18:53:22;11.68;;;7.47;;
70426;SDS011;57872;55.432;37.248;2023-08-01T18:58:25;12.38;;;8.23;;
70426;SDS011;57872;55.432;37.248;2023-08-01T19:03:26;13.98;;;8.50;;
70426;SDS011;57872;55.432;37.248;2023-08-01T19:08:28;13.90;;;8.20;;
70426;SDS011;57872;55.432;37.248;2023-08-01T19:13:34;14.45;;;8.57;;
70426;SDS011;57872;55.432;37.248;2023-08-01T19:18:40;12.90;;;7.70;;
70426;SDS011;57872;55.432;37.248;2023-08-01T19:23:41;13.05;;;7.97;;
70426;SDS011;57872;55.432;37.248;2023-08-01T19:28:42;12.85;;;8.98;;
70426;SDS011;57872;55.432;37.248;2023-08-01T19:33:49;15.40;;;9.23;;
70426;SDS011;57872;55.432;37.248;2023-08-01T19:38:59;13.30;;;9.32;;
70426;SDS011;57872;55.432;37.248;2023-08-01T19:44:03;15.93;;;10.60;;
70426;SDS011;57872;55.432;37.248;2023-08-01T19:49:28;15.90;;;10.73;;
70426;SDS011;57872;55.432;37.248;2023-08-01T19:54:29;15.35;;;10.20;;
70426;SDS011;57872;55.432;37.248;2023-08-01T19:59:32;20.23;;;9.93;;
70426;SDS011;57872;55.432;37.248;2023-08-01T20:11:07;18.08;;;10.25;;
70426;SDS011;57872;55.432;37.248;2023-08-01T20:16:54;15.82;;;10.20;;
70426;SDS011;57872;55.432;37.248;2023-08-01T20:22:31;20.23;;;12.02;;
70426;SDS011;57872;55.432;37.248;2023-08-01T20:27:43;17.85;;;11.10;;
70426;SDS011;57872;55.432;37.248;2023-08-01T20:33:18;18.60;;;10.90;;
70426;SDS011;57872;55.432;37.248;2023-08-01T20:38:20;16.70;;;10.90;;
70426;SDS011;57872;55.432;37.248;2023-08-01T20:43:29;20.48;;;11.45;;
70426;SDS011;57872;55.432;37.248;2023-08-01T20:49:17;19.48;;;12.13;;
70426;SDS011;57872;55.432;37.248;2023-08-01T20:54:36;16.95;;;10.73;;
70426;SDS011;57872;55.432;37.248;2023-08-01T21:00:05;15.68;;;9.95;;
70426;SDS011;57872;55.432;37.248;2023-08-01T21:05:17;18.52;;;11.57;;
70426;SDS011;57872;55.432;37.248;2023-08-01T21:10:56;17.60;;;10.30;;
70426;SDS011;57872;55.432;37.248;2023-08-01T21:16:17;20.40;;;10.55;;
70426;SDS011;57872;55.432;37.248;2023-08-01T21:21:33;18.20;;;12.35;;
70426;SDS011;57872;55.432;37.248;2023-08-01T21:26:58;19.20;;;11.98;;
70426;SDS011;57872;55.432;37.248;2023-08-01T21:31:59;20.27;;;12.32;;
70426;SDS011;57872;55.432;37.248;2023-08-01T21:37:02;21.92;;;12.88;;
70426;SDS011;57872;55.432;37.248;2023-08-01T21:42:03;17.77;;;12.65;;
70426;SDS011;57872;55.432;37.248;2023-08-01T21:47:10;21.58;;;11.23;;
70426;SDS011;57872;55.432;37.248;2023-08-01T21:52:11;21.95;;;12.93;;
70426;SDS011;57872;55.432;37.248;2023-08-01T21:57:14;18.75;;;11.70;;
70426;SDS011;57872;55.432;37.248;2023-08-01T22:02:15;19.48;;;11.48;;
70426;SDS011;57872;55.432;37.248;2023-08-01T22:07:22;21.58;;;12.23;;
70426;SDS011;57872;55.432;37.248;2023-08-01T22:12:23;21.85;;;11.27;;
70426;SDS011;57872;55.432;37.248;2023-08-01T22:17:24;19.60;;;11.82;;
70426;SDS011;57872;55.432;37.248;2023-08-01T22:22:24;17.67;;;10.02;;
70426;SDS011;57872;55.432;37.248;2023-08-01T22:27:26;13.80;;;8.38;;
70426;SDS011;57872;55.432;37.248;2023-08-01T22:32:27;14.50;;;9.63;;
70426;SDS011;57872;55.432;37.248;2023-08-01T22:37:29;20.77;;;12.00;;
70426;SDS011;57872;55.432;37.248;2023-08-01T22:42:29;20.40;;;10.52;;
70426;SDS011;57872;55.432;37.248;2023-08-01T22:47:31;17.13;;;10.70;;
70426;SDS011;57872;55.432;37.248;2023-08-01T22:52:32;18.20;;;11.48;;
70426;SDS011;57872;55.432;37.248;2023-08-01T22:57:33;19.13;;;10.00;;
70426;SDS011;57872;55.432;37.248;2023-08-01T23:02:33;21.05;;;11.88;;
70426;SDS011;57872;55.432;37.248;2023-08-01T23:07:34;19.38;;;11.63;;
70426;SDS011;57872;55.432;37.248;2023-08-01T23:12:38;19.10;;;10.10;;
70426;SDS011;57872;55.432;37.248;2023-08-01T23:17:39;19.48;;;9.90;;
70426;SDS011;57872;55.432;37.248;2023-08-01T23:22:43;22.52;;;12.75;;
70426;SDS011;57872;55.432;37.248;2023-08-01T23:27:44;17.42;;;11.32;;
70426;SDS011;57872;55.432;37.248;2023-08-01T23:32:47;23.67;;;11.82;;
70426;SDS011;57872;55.432;37.248;2023-08-01T23:37:49;18.17;;;11.57;;
70426;SDS011;57872;55.432;37.248;2023-08-01T23:42:53;19.08;;;11.40;;
70426;SDS011;57872;55.432;37.248;2023-08-01T23:47:53;18.77;;;10.55;;
70426;SDS011;57872;55.432;37.248;2023-08-01T23:53:03;16.83;;;10.68;;
70426;SDS011;57872;55.432;37.248;2023-08-01T23:58:03;17.13;;;11.25;;
